sensor_id;sensor_type;location;lat;lon;timestamp;P1;durP1;ratioP1;P2;durP2;ratioP2
38379;SDS011;38377;47.418;18.882;2022-11-18T00:01:24;66.95;;;36.42;;
38379;SDS011;38377;47.418;18.882;2022-11-18T00:03:50;68.55;;;36.55;;
38379;SDS011;38377;47.418;18.882;2022-11-18T00:06:18;57.00;;;34.55;;
38379;SDS011;38377;47.418;18.882;2022-11-18T00:08:45;62.28;;;35.92;;
38379;SDS011;38377;47.418;18.882;2022-11-18T00:11:12;54.75;;;33.42;;
38379;SDS011;38377;47.418;18.882;2022-11-18T00:14:03;61.55;;;35.15;;
38379;SDS011;38377;47.418;18.882;2022-11-18T00:19:39;55.85;;;31.85;;
38379;SDS011;38377;47.418;18.882;2022-11-18T00:22:05;55.20;;;29.98;;
38379;SDS011;38377;47.418;18.882;2022-11-18T00:24:32;59.90;;;32.25;;
38379;SDS011;38377;47.418;18.882;2022-11-18T00:26:58;61.38;;;32.58;;
38379;SDS011;38377;47.418;18.882;2022-11-18T00:29:24;56.88;;;31.77;;
38379;SDS011;38377;47.418;18.882;2022-11-18T00:31:55;41.80;;;25.58;;
38379;SDS011;38377;47.418;18.882;2022-11-18T00:34:21;59.75;;;33.72;;
38379;SDS011;38377;47.418;18.882;2022-11-18T00:36:47;60.75;;;34.63;;
38379;SDS011;38377;47.418;18.882;2022-11-18T00:39:14;60.83;;;33.80;;
38379;SDS011;38377;47.418;18.882;2022-11-18T00:41:41;51.05;;;31.65;;
38379;SDS011;38377;47.418;18.882;2022-11-18T00:44:26;60.88;;;31.63;;
38379;SDS011;38377;47.418;18.882;2022-11-18T00:46:52;62.28;;;32.45;;
38379;SDS011;38377;47.418;18.882;2022-11-18T00:49:17;63.63;;;35.13;;
38379;SDS011;38377;47.418;18.882;2022-11-18T00:51:43;66.45;;;36.60;;
38379;SDS011;38377;47.418;18.882;2022-11-18T00:54:09;70.43;;;36.38;;
38379;SDS011;38377;47.418;18.882;2022-11-18T00:56:35;65.05;;;35.72;;
38379;SDS011;38377;47.418;18.882;2022-11-18T00:59:00;61.70;;;35.42;;
38379;SDS011;38377;47.418;18.882;2022-11-18T01:01:26;70.88;;;36.38;;
38379;SDS011;38377;47.418;18.882;2022-11-18T01:03:52;67.78;;;38.67;;
38379;SDS011;38377;47.418;18.882;2022-11-18T01:06:18;68.43;;;37.40;;
38379;SDS011;38377;47.418;18.882;2022-11-18T01:08:43;65.10;;;34.83;;
38379;SDS011;38377;47.418;18.882;2022-11-18T01:11:09;59.63;;;35.58;;
38379;SDS011;38377;47.418;18.882;2022-11-18T01:13:53;65.50;;;38.08;;
38379;SDS011;38377;47.418;18.882;2022-11-18T01:16:20;68.60;;;38.33;;
38379;SDS011;38377;47.418;18.882;2022-11-18T01:18:50;81.13;;;40.55;;
38379;SDS011;38377;47.418;18.882;2022-11-18T01:21:16;62.30;;;36.40;;
38379;SDS011;38377;47.418;18.882;2022-11-18T01:23:42;68.15;;;39.13;;
38379;SDS011;38377;47.418;18.882;2022-11-18T01:26:10;70.90;;;38.63;;
38379;SDS011;38377;47.418;18.882;2022-11-18T01:28:36;67.95;;;37.88;;
38379;SDS011;38377;47.418;18.882;2022-11-18T01:31:03;82.80;;;40.15;;
38379;SDS011;38377;47.418;18.882;2022-11-18T01:33:36;67.47;;;36.60;;
38379;SDS011;38377;47.418;18.882;2022-11-18T01:36:02;64.38;;;35.25;;
38379;SDS011;38377;47.418;18.882;2022-11-18T01:38:28;61.42;;;34.53;;
38379;SDS011;38377;47.418;18.882;2022-11-18T01:40:54;61.00;;;34.53;;
38379;SDS011;38377;47.418;18.882;2022-11-18T01:43:21;71.43;;;36.33;;
38379;SDS011;38377;47.418;18.882;2022-11-18T01:45:48;65.47;;;36.75;;
38379;SDS011;38377;47.418;18.882;2022-11-18T01:48:17;65.82;;;36.72;;
38379;SDS011;38377;47.418;18.882;2022-11-18T01:50:48;59.67;;;33.08;;
38379;SDS011;38377;47.418;18.882;2022-11-18T01:53:25;61.95;;;34.90;;
38379;SDS011;38377;47.418;18.882;2022-11-18T01:56:07;71.63;;;36.85;;
38379;SDS011;38377;47.418;18.882;2022-11-18T01:58:40;87.82;;;41.58;;
38379;SDS011;38377;47.418;18.882;2022-11-18T02:01:10;120.80;;;46.92;;
38379;SDS011;38377;47.418;18.882;2022-11-18T02:03:36;149.32;;;51.90;;
38379;SDS011;38377;47.418;18.882;2022-11-18T02:06:02;125.55;;;51.20;;
38379;SDS011;38377;47.418;18.882;2022-11-18T02:08:30;365.23;;;75.88;;
38379;SDS011;38377;47.418;18.882;2022-11-18T02:10:57;346.70;;;78.60;;
38379;SDS011;38377;47.418;18.882;2022-11-18T02:13:23;351.67;;;77.30;;
38379;SDS011;38377;47.418;18.882;2022-11-18T02:15:59;258.40;;;68.15;;
38379;SDS011;38377;47.418;18.882;2022-11-18T02:29:40;386.77;;;77.65;;
38379;SDS011;38377;47.418;18.882;2022-11-18T02:32:18;345.35;;;75.53;;
38379;SDS011;38377;47.418;18.882;2022-11-18T02:34:59;378.55;;;80.22;;
38379;SDS011;38377;47.418;18.882;2022-11-18T02:37:44;533.13;;;95.32;;
38379;SDS011;38377;47.418;18.882;2022-11-18T02:40:20;473.30;;;95.85;;
38379;SDS011;38377;47.418;18.882;2022-11-18T02:43:01;439.20;;;87.13;;
38379;SDS011;38377;47.418;18.882;2022-11-18T02:45:33;412.00;;;77.43;;
38379;SDS011;38377;47.418;18.882;2022-11-18T02:48:01;599.72;;;104.80;;
38379;SDS011;38377;47.418;18.882;2022-11-18T02:50:31;407.88;;;87.70;;
38379;SDS011;38377;47.418;18.882;2022-11-18T02:53:00;454.58;;;92.50;;
38379;SDS011;38377;47.418;18.882;2022-11-18T02:55:29;334.98;;;74.50;;
38379;SDS011;38377;47.418;18.882;2022-11-18T02:57:58;375.67;;;78.07;;
38379;SDS011;38377;47.418;18.882;2022-11-18T03:00:26;529.13;;;102.30;;
38379;SDS011;38377;47.418;18.882;2022-11-18T03:02:52;273.55;;;64.55;;
38379;SDS011;38377;47.418;18.882;2022-11-18T03:08:16;495.02;;;95.22;;
38379;SDS011;38377;47.418;18.882;2022-11-18T03:10:51;412.00;;;88.28;;
38379;SDS011;38377;47.418;18.882;2022-11-18T03:13:31;508.13;;;103.53;;
38379;SDS011;38377;47.418;18.882;2022-11-18T03:16:08;443.75;;;89.18;;
38379;SDS011;38377;47.418;18.882;2022-11-18T03:21:38;430.35;;;83.25;;
38379;SDS011;38377;47.418;18.882;2022-11-18T03:24:25;515.17;;;100.45;;
38379;SDS011;38377;47.418;18.882;2022-11-18T03:26:58;355.23;;;73.53;;
38379;SDS011;38377;47.418;18.882;2022-11-18T03:29:45;324.42;;;66.30;;
38379;SDS011;38377;47.418;18.882;2022-11-18T03:32:19;402.48;;;84.47;;
38379;SDS011;38377;47.418;18.882;2022-11-18T03:34:49;389.45;;;86.10;;
38379;SDS011;38377;47.418;18.882;2022-11-18T03:37:22;404.55;;;79.55;;
38379;SDS011;38377;47.418;18.882;2022-11-18T03:39:51;275.92;;;65.15;;
38379;SDS011;38377;47.418;18.882;2022-11-18T03:42:28;290.55;;;66.85;;
38379;SDS011;38377;47.418;18.882;2022-11-18T03:45:17;328.17;;;78.70;;
38379;SDS011;38377;47.418;18.882;2022-11-18T03:47:54;277.20;;;72.85;;
38379;SDS011;38377;47.418;18.882;2022-11-18T03:50:29;358.67;;;83.60;;
38379;SDS011;38377;47.418;18.882;2022-11-18T03:52:59;165.45;;;57.22;;
38379;SDS011;38377;47.418;18.882;2022-11-18T03:55:28;300.08;;;72.03;;
38379;SDS011;38377;47.418;18.882;2022-11-18T03:58:03;282.38;;;71.63;;
38379;SDS011;38377;47.418;18.882;2022-11-18T04:00:42;128.50;;;54.30;;
38379;SDS011;38377;47.418;18.882;2022-11-18T04:03:11;156.55;;;56.42;;
38379;SDS011;38377;47.418;18.882;2022-11-18T04:05:38;150.52;;;56.63;;
38379;SDS011;38377;47.418;18.882;2022-11-18T04:08:06;132.70;;;52.05;;
38379;SDS011;38377;47.418;18.882;2022-11-18T04:10:48;253.52;;;71.65;;
38379;SDS011;38377;47.418;18.882;2022-11-18T04:13:22;228.88;;;65.03;;
38379;SDS011;38377;47.418;18.882;2022-11-18T04:15:52;299.08;;;76.13;;
38379;SDS011;38377;47.418;18.882;2022-11-18T04:18:18;206.25;;;62.63;;
38379;SDS011;38377;47.418;18.882;2022-11-18T04:20:44;220.20;;;66.20;;
38379;SDS011;38377;47.418;18.882;2022-11-18T04:23:10;187.55;;;59.70;;
38379;SDS011;38377;47.418;18.882;2022-11-18T04:25:36;185.77;;;59.35;;
38379;SDS011;38377;47.418;18.882;2022-11-18T04:28:02;115.15;;;47.15;;
38379;SDS011;38377;47.418;18.882;2022-11-18T04:30:28;113.43;;;46.28;;
38379;SDS011;38377;47.418;18.882;2022-11-18T04:32:54;124.63;;;49.55;;
38379;SDS011;38377;47.418;18.882;2022-11-18T04:35:19;101.90;;;44.83;;
38379;SDS011;38377;47.418;18.882;2022-11-18T04:37:45;99.05;;;45.25;;
38379;SDS011;38377;47.418;18.882;2022-11-18T04:40:11;111.15;;;48.15;;
38379;SDS011;38377;47.418;18.882;2022-11-18T04:42:37;123.65;;;50.13;;
38379;SDS011;38377;47.418;18.882;2022-11-18T04:45:03;111.13;;;47.20;;
38379;SDS011;38377;47.418;18.882;2022-11-18T04:47:29;104.90;;;48.05;;
38379;SDS011;38377;47.418;18.882;2022-11-18T04:49:54;106.60;;;46.92;;
38379;SDS011;38377;47.418;18.882;2022-11-18T04:52:20;120.38;;;47.33;;
38379;SDS011;38377;47.418;18.882;2022-11-18T04:54:46;108.32;;;46.00;;
38379;SDS011;38377;47.418;18.882;2022-11-18T04:57:11;149.07;;;49.53;;
38379;SDS011;38377;47.418;18.882;2022-11-18T04:59:38;130.88;;;50.28;;
38379;SDS011;38377;47.418;18.882;2022-11-18T05:02:04;135.88;;;48.70;;
38379;SDS011;38377;47.418;18.882;2022-11-18T05:04:30;148.65;;;54.28;;
38379;SDS011;38377;47.418;18.882;2022-11-18T05:06:57;109.07;;;47.75;;
38379;SDS011;38377;47.418;18.882;2022-11-18T05:09:25;104.90;;;44.97;;
38379;SDS011;38377;47.418;18.882;2022-11-18T05:11:50;113.80;;;50.90;;
38379;SDS011;38377;47.418;18.882;2022-11-18T05:14:35;100.57;;;48.25;;
38379;SDS011;38377;47.418;18.882;2022-11-18T05:17:02;100.65;;;45.83;;
38379;SDS011;38377;47.418;18.882;2022-11-18T05:19:29;96.40;;;46.25;;
38379;SDS011;38377;47.418;18.882;2022-11-18T05:21:55;112.60;;;50.50;;
38379;SDS011;38377;47.418;18.882;2022-11-18T05:24:21;105.38;;;50.63;;
38379;SDS011;38377;47.418;18.882;2022-11-18T05:26:52;118.75;;;48.38;;
38379;SDS011;38377;47.418;18.882;2022-11-18T05:29:18;108.20;;;46.65;;
38379;SDS011;38377;47.418;18.882;2022-11-18T05:31:45;118.35;;;47.03;;
38379;SDS011;38377;47.418;18.882;2022-11-18T05:34:11;89.57;;;39.70;;
38379;SDS011;38377;47.418;18.882;2022-11-18T05:36:38;89.30;;;41.13;;
38379;SDS011;38377;47.418;18.882;2022-11-18T05:39:04;95.13;;;40.83;;
38379;SDS011;38377;47.418;18.882;2022-11-18T05:41:29;103.82;;;42.70;;
38379;SDS011;38377;47.418;18.882;2022-11-18T05:44:14;109.70;;;44.40;;
38379;SDS011;38377;47.418;18.882;2022-11-18T05:46:40;119.10;;;48.53;;
38379;SDS011;38377;47.418;18.882;2022-11-18T05:49:06;108.75;;;43.45;;
38379;SDS011;38377;47.418;18.882;2022-11-18T05:51:32;114.75;;;44.83;;
38379;SDS011;38377;47.418;18.882;2022-11-18T05:53:58;117.68;;;45.65;;
38379;SDS011;38377;47.418;18.882;2022-11-18T05:56:30;168.00;;;53.80;;
38379;SDS011;38377;47.418;18.882;2022-11-18T05:59:03;242.30;;;61.85;;
38379;SDS011;38377;47.418;18.882;2022-11-18T06:03:58;215.75;;;64.95;;
38379;SDS011;38377;47.418;18.882;2022-11-18T06:06:26;200.60;;;59.90;;
38379;SDS011;38377;47.418;18.882;2022-11-18T06:08:57;190.93;;;63.95;;
38379;SDS011;38377;47.418;18.882;2022-11-18T06:11:26;188.50;;;63.60;;
38379;SDS011;38377;47.418;18.882;2022-11-18T06:13:56;291.90;;;71.78;;
38379;SDS011;38377;47.418;18.882;2022-11-18T06:16:32;372.05;;;85.47;;
38379;SDS011;38377;47.418;18.882;2022-11-18T06:19:00;260.98;;;66.05;;
38379;SDS011;38377;47.418;18.882;2022-11-18T06:21:27;217.18;;;64.38;;
38379;SDS011;38377;47.418;18.882;2022-11-18T06:23:54;422.23;;;94.15;;
38379;SDS011;38377;47.418;18.882;2022-11-18T06:26:20;453.80;;;98.32;;
38379;SDS011;38377;47.418;18.882;2022-11-18T06:28:46;349.55;;;88.85;;
38379;SDS011;38377;47.418;18.882;2022-11-18T06:31:13;308.20;;;77.43;;
38379;SDS011;38377;47.418;18.882;2022-11-18T06:33:40;337.42;;;82.97;;
38379;SDS011;38377;47.418;18.882;2022-11-18T06:36:07;369.50;;;84.57;;
38379;SDS011;38377;47.418;18.882;2022-11-18T06:38:33;191.40;;;69.25;;
38379;SDS011;38377;47.418;18.882;2022-11-18T06:40:59;171.10;;;59.38;;
38379;SDS011;38377;47.418;18.882;2022-11-18T06:43:25;179.90;;;62.60;;
38379;SDS011;38377;47.418;18.882;2022-11-18T06:46:10;207.63;;;68.05;;
38379;SDS011;38377;47.418;18.882;2022-11-18T06:48:59;269.15;;;75.13;;
38379;SDS011;38377;47.418;18.882;2022-11-18T06:51:27;185.05;;;64.35;;
38379;SDS011;38377;47.418;18.882;2022-11-18T06:53:53;234.98;;;65.10;;
38379;SDS011;38377;47.418;18.882;2022-11-18T06:56:19;240.60;;;71.25;;
38379;SDS011;38377;47.418;18.882;2022-11-18T06:58:46;181.13;;;58.63;;
38379;SDS011;38377;47.418;18.882;2022-11-18T07:03:41;256.23;;;76.95;;
38379;SDS011;38377;47.418;18.882;2022-11-18T07:06:08;531.88;;;115.30;;
38379;SDS011;38377;47.418;18.882;2022-11-18T07:08:35;510.77;;;112.38;;
38379;SDS011;38377;47.418;18.882;2022-11-18T07:11:03;250.85;;;66.93;;
38379;SDS011;38377;47.418;18.882;2022-11-18T07:13:30;286.05;;;69.53;;
38379;SDS011;38377;47.418;18.882;2022-11-18T07:16:39;294.85;;;78.82;;
38379;SDS011;38377;47.418;18.882;2022-11-18T07:18:48;191.13;;;61.07;;
38379;SDS011;38377;47.418;18.882;2022-11-18T07:21:15;306.90;;;76.30;;
38379;SDS011;38377;47.418;18.882;2022-11-18T07:23:43;326.50;;;77.97;;
38379;SDS011;38377;47.418;18.882;2022-11-18T07:26:09;267.92;;;73.18;;
38379;SDS011;38377;47.418;18.882;2022-11-18T07:28:35;474.13;;;99.50;;
38379;SDS011;38377;47.418;18.882;2022-11-18T07:33:36;216.25;;;57.47;;
38379;SDS011;38377;47.418;18.882;2022-11-18T07:36:04;334.85;;;71.43;;
38379;SDS011;38377;47.418;18.882;2022-11-18T07:38:31;221.25;;;53.60;;
38379;SDS011;38377;47.418;18.882;2022-11-18T07:43:35;167.38;;;55.40;;
38379;SDS011;38377;47.418;18.882;2022-11-18T07:48:47;152.98;;;54.95;;
38379;SDS011;38377;47.418;18.882;2022-11-18T07:51:17;193.52;;;57.67;;
38379;SDS011;38377;47.418;18.882;2022-11-18T07:53:46;103.78;;;42.63;;
38379;SDS011;38377;47.418;18.882;2022-11-18T07:56:13;107.95;;;40.80;;
38379;SDS011;38377;47.418;18.882;2022-11-18T07:58:39;92.13;;;32.92;;
38379;SDS011;38377;47.418;18.882;2022-11-18T08:01:13;113.45;;;40.97;;
38379;SDS011;38377;47.418;18.882;2022-11-18T08:03:39;120.40;;;42.47;;
38379;SDS011;38377;47.418;18.882;2022-11-18T08:06:06;117.85;;;40.55;;
38379;SDS011;38377;47.418;18.882;2022-11-18T08:08:33;117.13;;;40.88;;
38379;SDS011;38377;47.418;18.882;2022-11-18T08:11:00;141.88;;;41.17;;
38379;SDS011;38377;47.418;18.882;2022-11-18T08:13:28;213.05;;;50.78;;
38379;SDS011;38377;47.418;18.882;2022-11-18T08:15:54;200.45;;;46.83;;
38379;SDS011;38377;47.418;18.882;2022-11-18T08:18:20;161.70;;;42.88;;
38379;SDS011;38377;47.418;18.882;2022-11-18T08:20:46;179.85;;;43.17;;
38379;SDS011;38377;47.418;18.882;2022-11-18T08:23:13;175.40;;;46.53;;
38379;SDS011;38377;47.418;18.882;2022-11-18T08:25:40;187.02;;;52.47;;
38379;SDS011;38377;47.418;18.882;2022-11-18T08:28:06;164.48;;;44.67;;
38379;SDS011;38377;47.418;18.882;2022-11-18T08:30:33;109.28;;;39.15;;
38379;SDS011;38377;47.418;18.882;2022-11-18T08:32:59;113.30;;;40.28;;
38379;SDS011;38377;47.418;18.882;2022-11-18T08:35:26;92.47;;;33.58;;
38379;SDS011;38377;47.418;18.882;2022-11-18T08:37:52;76.00;;;34.70;;
38379;SDS011;38377;47.418;18.882;2022-11-18T08:40:18;85.75;;;31.63;;
38379;SDS011;38377;47.418;18.882;2022-11-18T08:42:44;81.90;;;28.10;;
38379;SDS011;38377;47.418;18.882;2022-11-18T08:45:09;92.32;;;32.70;;
38379;SDS011;38377;47.418;18.882;2022-11-18T08:47:36;71.95;;;26.58;;
38379;SDS011;38377;47.418;18.882;2022-11-18T08:50:05;74.45;;;26.42;;
38379;SDS011;38377;47.418;18.882;2022-11-18T08:52:33;73.32;;;29.98;;
38379;SDS011;38377;47.418;18.882;2022-11-18T08:54:58;78.35;;;31.13;;
38379;SDS011;38377;47.418;18.882;2022-11-18T08:57:24;88.72;;;38.17;;
38379;SDS011;38377;47.418;18.882;2022-11-18T08:59:50;77.93;;;29.58;;
38379;SDS011;38377;47.418;18.882;2022-11-18T09:02:17;71.35;;;26.88;;
38379;SDS011;38377;47.418;18.882;2022-11-18T09:04:47;73.43;;;28.42;;
38379;SDS011;38377;47.418;18.882;2022-11-18T09:07:14;73.88;;;28.08;;
38379;SDS011;38377;47.418;18.882;2022-11-18T09:09:41;65.65;;;25.73;;
38379;SDS011;38377;47.418;18.882;2022-11-18T09:12:06;88.22;;;28.30;;
38379;SDS011;38377;47.418;18.882;2022-11-18T09:14:33;61.10;;;25.08;;
38379;SDS011;38377;47.418;18.882;2022-11-18T09:16:59;68.63;;;24.02;;
38379;SDS011;38377;47.418;18.882;2022-11-18T09:19:25;67.80;;;24.73;;
38379;SDS011;38377;47.418;18.882;2022-11-18T09:21:51;56.45;;;21.95;;
38379;SDS011;38377;47.418;18.882;2022-11-18T09:24:17;59.40;;;22.38;;
38379;SDS011;38377;47.418;18.882;2022-11-18T09:26:42;57.50;;;23.42;;
38379;SDS011;38377;47.418;18.882;2022-11-18T09:29:08;63.13;;;23.63;;
38379;SDS011;38377;47.418;18.882;2022-11-18T09:31:35;46.17;;;19.25;;
38379;SDS011;38377;47.418;18.882;2022-11-18T09:34:01;56.15;;;23.30;;
38379;SDS011;38377;47.418;18.882;2022-11-18T09:36:27;59.45;;;24.98;;
38379;SDS011;38377;47.418;18.882;2022-11-18T09:38:53;75.97;;;28.02;;
38379;SDS011;38377;47.418;18.882;2022-11-18T09:49:41;65.57;;;26.17;;
38379;SDS011;38377;47.418;18.882;2022-11-18T09:54:45;73.72;;;28.35;;
38379;SDS011;38377;47.418;18.882;2022-11-18T09:57:18;71.57;;;26.73;;
38379;SDS011;38377;47.418;18.882;2022-11-18T09:59:48;63.95;;;25.20;;
38379;SDS011;38377;47.418;18.882;2022-11-18T10:05:07;51.53;;;23.23;;
38379;SDS011;38377;47.418;18.882;2022-11-18T10:07:46;80.78;;;33.72;;
38379;SDS011;38377;47.418;18.882;2022-11-18T10:13:39;68.95;;;29.45;;
38379;SDS011;38377;47.418;18.882;2022-11-18T10:19:02;82.22;;;28.42;;
38379;SDS011;38377;47.418;18.882;2022-11-18T10:21:59;54.17;;;22.08;;
38379;SDS011;38377;47.418;18.882;2022-11-18T10:24:29;63.55;;;25.90;;
38379;SDS011;38377;47.418;18.882;2022-11-18T10:27:00;68.40;;;26.33;;
38379;SDS011;38377;47.418;18.882;2022-11-18T10:29:26;94.43;;;30.17;;
38379;SDS011;38377;47.418;18.882;2022-11-18T10:32:02;68.53;;;29.13;;
38379;SDS011;38377;47.418;18.882;2022-11-18T10:34:34;96.55;;;30.80;;
38379;SDS011;38377;47.418;18.882;2022-11-18T10:37:19;102.22;;;30.27;;
38379;SDS011;38377;47.418;18.882;2022-11-18T10:39:53;67.50;;;23.60;;
38379;SDS011;38377;47.418;18.882;2022-11-18T10:44:54;61.65;;;23.15;;
38379;SDS011;38377;47.418;18.882;2022-11-18T10:47:30;56.40;;;25.10;;
38379;SDS011;38377;47.418;18.882;2022-11-18T10:49:57;69.72;;;27.92;;
38379;SDS011;38377;47.418;18.882;2022-11-18T10:52:26;62.10;;;25.65;;
38379;SDS011;38377;47.418;18.882;2022-11-18T10:57:41;44.28;;;22.67;;
38379;SDS011;38377;47.418;18.882;2022-11-18T11:03:00;38.30;;;20.75;;
38379;SDS011;38377;47.418;18.882;2022-11-18T11:05:44;39.90;;;20.38;;
38379;SDS011;38377;47.418;18.882;2022-11-18T11:08:20;41.05;;;18.25;;
38379;SDS011;38377;47.418;18.882;2022-11-18T11:10:57;37.92;;;20.27;;
38379;SDS011;38377;47.418;18.882;2022-11-18T11:13:26;35.25;;;17.60;;
38379;SDS011;38377;47.418;18.882;2022-11-18T11:15:55;42.30;;;20.45;;
38379;SDS011;38377;47.418;18.882;2022-11-18T11:18:26;36.85;;;17.38;;
38379;SDS011;38377;47.418;18.882;2022-11-18T11:21:10;31.50;;;17.75;;
38379;SDS011;38377;47.418;18.882;2022-11-18T11:23:40;32.97;;;16.70;;
38379;SDS011;38377;47.418;18.882;2022-11-18T11:26:11;35.47;;;18.70;;
38379;SDS011;38377;47.418;18.882;2022-11-18T11:31:45;107.00;;;34.67;;
38379;SDS011;38377;47.418;18.882;2022-11-18T11:34:19;99.80;;;38.03;;
38379;SDS011;38377;47.418;18.882;2022-11-18T11:36:56;149.02;;;56.97;;
38379;SDS011;38377;47.418;18.882;2022-11-18T11:45:34;43.40;;;22.48;;
38379;SDS011;38377;47.418;18.882;2022-11-18T11:50:22;36.05;;;22.77;;
38379;SDS011;38377;47.418;18.882;2022-11-18T12:06:46;41.72;;;22.25;;
38379;SDS011;38377;47.418;18.882;2022-11-18T12:12:15;32.72;;;18.85;;
38379;SDS011;38377;47.418;18.882;2022-11-18T12:15:02;37.63;;;18.45;;
38379;SDS011;38377;47.418;18.882;2022-11-18T12:17:41;34.90;;;16.27;;
38379;SDS011;38377;47.418;18.882;2022-11-18T12:20:36;35.53;;;19.38;;
38379;SDS011;38377;47.418;18.882;2022-11-18T12:23:12;47.78;;;24.48;;
38379;SDS011;38377;47.418;18.882;2022-11-18T12:28:32;31.02;;;17.02;;
38379;SDS011;38377;47.418;18.882;2022-11-18T12:33:47;27.60;;;14.88;;
38379;SDS011;38377;47.418;18.882;2022-11-18T12:36:29;29.77;;;14.70;;
38379;SDS011;38377;47.418;18.882;2022-11-18T12:38:57;27.10;;;14.20;;
38379;SDS011;38377;47.418;18.882;2022-11-18T12:44:28;24.60;;;13.23;;
38379;SDS011;38377;47.418;18.882;2022-11-18T12:46:55;25.55;;;14.02;;
38379;SDS011;38377;47.418;18.882;2022-11-18T12:51:47;23.30;;;12.82;;
38379;SDS011;38377;47.418;18.882;2022-11-18T12:54:19;20.98;;;12.77;;
38379;SDS011;38377;47.418;18.882;2022-11-18T12:56:52;18.88;;;11.70;;
38379;SDS011;38377;47.418;18.882;2022-11-18T12:59:25;28.83;;;13.25;;
38379;SDS011;38377;47.418;18.882;2022-11-18T13:04:36;23.38;;;13.27;;
38379;SDS011;38377;47.418;18.882;2022-11-18T13:07:08;20.17;;;12.40;;
38379;SDS011;38377;47.418;18.882;2022-11-18T13:09:55;23.35;;;13.13;;
38379;SDS011;38377;47.418;18.882;2022-11-18T13:12:21;23.50;;;13.45;;
38379;SDS011;38377;47.418;18.882;2022-11-18T13:14:51;21.70;;;13.15;;
38379;SDS011;38377;47.418;18.882;2022-11-18T13:17:36;20.13;;;13.05;;
38379;SDS011;38377;47.418;18.882;2022-11-18T13:20:35;17.42;;;11.90;;
38379;SDS011;38377;47.418;18.882;2022-11-18T13:23:03;18.52;;;11.90;;
38379;SDS011;38377;47.418;18.882;2022-11-18T13:31:23;18.48;;;13.82;;
38379;SDS011;38377;47.418;18.882;2022-11-18T13:34:00;16.77;;;12.35;;
38379;SDS011;38377;47.418;18.882;2022-11-18T13:39:04;23.30;;;16.35;;
38379;SDS011;38377;47.418;18.882;2022-11-18T13:41:32;26.25;;;17.10;;
38379;SDS011;38377;47.418;18.882;2022-11-18T13:44:18;30.65;;;18.35;;
38379;SDS011;38377;47.418;18.882;2022-11-18T13:46:57;29.15;;;18.17;;
38379;SDS011;38377;47.418;18.882;2022-11-18T13:52:06;16.77;;;11.77;;
38379;SDS011;38377;47.418;18.882;2022-11-18T13:54:38;14.55;;;11.00;;
38379;SDS011;38377;47.418;18.882;2022-11-18T13:57:04;17.67;;;13.15;;
38379;SDS011;38377;47.418;18.882;2022-11-18T13:59:29;16.88;;;12.93;;
38379;SDS011;38377;47.418;18.882;2022-11-18T14:01:58;23.58;;;18.48;;
38379;SDS011;38377;47.418;18.882;2022-11-18T14:04:25;17.52;;;12.73;;
38379;SDS011;38377;47.418;18.882;2022-11-18T14:07:14;20.88;;;14.73;;
38379;SDS011;38377;47.418;18.882;2022-11-18T14:10:04;21.42;;;14.57;;
38379;SDS011;38377;47.418;18.882;2022-11-18T14:12:33;24.55;;;18.00;;
38379;SDS011;38377;47.418;18.882;2022-11-18T14:17:50;25.65;;;15.35;;
38379;SDS011;38377;47.418;18.882;2022-11-18T14:20:18;27.58;;;15.98;;
38379;SDS011;38377;47.418;18.882;2022-11-18T14:22:44;30.42;;;17.58;;
38379;SDS011;38377;47.418;18.882;2022-11-18T14:25:27;31.45;;;19.08;;
38379;SDS011;38377;47.418;18.882;2022-11-18T14:33:24;28.60;;;16.98;;
38379;SDS011;38377;47.418;18.882;2022-11-18T14:36:00;26.33;;;16.02;;
38379;SDS011;38377;47.418;18.882;2022-11-18T14:38:49;23.50;;;14.88;;
38379;SDS011;38377;47.418;18.882;2022-11-18T14:41:19;20.42;;;13.77;;
38379;SDS011;38377;47.418;18.882;2022-11-18T14:44:24;19.70;;;14.18;;
38379;SDS011;38377;47.418;18.882;2022-11-18T14:46:53;20.65;;;13.60;;
38379;SDS011;38377;47.418;18.882;2022-11-18T14:49:24;17.95;;;13.95;;
38379;SDS011;38377;47.418;18.882;2022-11-18T14:51:51;19.58;;;13.25;;
38379;SDS011;38377;47.418;18.882;2022-11-18T14:54:18;21.58;;;13.52;;
38379;SDS011;38377;47.418;18.882;2022-11-18T14:56:46;17.70;;;12.70;;
38379;SDS011;38377;47.418;18.882;2022-11-18T14:59:14;18.23;;;12.27;;
38379;SDS011;38377;47.418;18.882;2022-11-18T15:01:42;15.93;;;11.57;;
38379;SDS011;38377;47.418;18.882;2022-11-18T15:04:09;18.42;;;12.68;;
38379;SDS011;38377;47.418;18.882;2022-11-18T15:06:35;18.30;;;12.25;;
38379;SDS011;38377;47.418;18.882;2022-11-18T15:09:01;20.30;;;13.85;;
38379;SDS011;38377;47.418;18.882;2022-11-18T15:11:27;18.85;;;13.82;;
38379;SDS011;38377;47.418;18.882;2022-11-18T15:13:53;22.52;;;14.93;;
38379;SDS011;38377;47.418;18.882;2022-11-18T15:16:22;27.83;;;17.08;;
38379;SDS011;38377;47.418;18.882;2022-11-18T15:18:51;33.47;;;22.45;;
38379;SDS011;38377;47.418;18.882;2022-11-18T15:21:18;29.08;;;19.85;;
38379;SDS011;38377;47.418;18.882;2022-11-18T15:23:45;39.30;;;22.65;;
38379;SDS011;38377;47.418;18.882;2022-11-18T15:26:21;30.45;;;19.05;;
38379;SDS011;38377;47.418;18.882;2022-11-18T15:28:48;23.48;;;15.65;;
38379;SDS011;38377;47.418;18.882;2022-11-18T15:31:16;23.27;;;15.77;;
38379;SDS011;38377;47.418;18.882;2022-11-18T15:33:42;30.15;;;18.20;;
38379;SDS011;38377;47.418;18.882;2022-11-18T15:36:12;25.13;;;16.58;;
38379;SDS011;38377;47.418;18.882;2022-11-18T15:38:46;23.38;;;15.02;;
38379;SDS011;38377;47.418;18.882;2022-11-18T15:43:43;28.50;;;17.40;;
38379;SDS011;38377;47.418;18.882;2022-11-18T15:46:09;25.83;;;17.08;;
38379;SDS011;38377;47.418;18.882;2022-11-18T15:48:35;29.60;;;18.70;;
38379;SDS011;38377;47.418;18.882;2022-11-18T15:51:00;29.55;;;18.92;;
38379;SDS011;38377;47.418;18.882;2022-11-18T15:53:26;32.08;;;18.70;;
38379;SDS011;38377;47.418;18.882;2022-11-18T15:55:52;34.15;;;20.92;;
38379;SDS011;38377;47.418;18.882;2022-11-18T15:58:57;32.63;;;19.55;;
38379;SDS011;38377;47.418;18.882;2022-11-18T16:01:26;34.35;;;19.85;;
38379;SDS011;38377;47.418;18.882;2022-11-18T16:03:53;34.67;;;20.98;;
38379;SDS011;38377;47.418;18.882;2022-11-18T16:06:19;35.83;;;21.40;;
38379;SDS011;38377;47.418;18.882;2022-11-18T16:08:45;35.13;;;19.58;;
38379;SDS011;38377;47.418;18.882;2022-11-18T16:11:12;39.00;;;22.67;;
38379;SDS011;38377;47.418;18.882;2022-11-18T16:14:00;42.90;;;23.73;;
38379;SDS011;38377;47.418;18.882;2022-11-18T16:16:27;39.80;;;24.15;;
38379;SDS011;38377;47.418;18.882;2022-11-18T16:18:55;42.67;;;26.05;;
38379;SDS011;38377;47.418;18.882;2022-11-18T16:21:22;41.97;;;23.60;;
38379;SDS011;38377;47.418;18.882;2022-11-18T16:23:48;45.97;;;26.00;;
38379;SDS011;38377;47.418;18.882;2022-11-18T16:26:14;46.35;;;26.25;;